createdAt,value
2019-03-21T00:00:31.360Z,69.52
2019-03-21T00:02:57.348Z,69.51
2019-03-21T00:05:24.323Z,69.53
2019-03-21T00:07:50.179Z,69.54
2019-03-21T00:10:17.932Z,69.48
2019-03-21T00:12:43.789Z,69.46
2019-03-21T00:15:11.583Z,69.34
2019-03-21T00:17:41.594Z,69.40
2019-03-21T00:20:08.948Z,69.45
2019-03-21T00:22:34.820Z,69.44
2019-03-21T00:25:02.587Z,69.43
2019-03-21T00:27:28.440Z,69.42
2019-03-21T00:29:54.505Z,69.42
2019-03-21T00:32:20.464Z,69.43
2019-03-21T00:34:46.429Z,69.41
2019-03-21T00:37:12.305Z,69.44
2019-03-21T00:39:38.414Z,69.39
2019-03-21T00:42:04.259Z,69.31
2019-03-21T00:44:30.135Z,69.34
2019-03-21T00:46:56.191Z,69.28
2019-03-21T00:49:22.221Z,69.34
2019-03-21T00:51:48.080Z,69.29
2019-03-21T00:54:13.976Z,69.24
2019-03-21T00:56:39.836Z,69.22
2019-03-21T00:59:05.813Z,69.18
2019-03-21T01:01:31.761Z,69.13
2019-03-21T01:03:57.616Z,69.11
2019-03-21T01:06:23.512Z,69.15
2019-03-21T01:08:49.492Z,69.13
2019-03-21T01:11:15.435Z,69.13
2019-03-21T01:13:41.348Z,69.06
2019-03-21T01:16:07.315Z,69.03
2019-03-21T01:18:34.795Z,69.05
2019-03-21T01:21:00.665Z,69.07
2019-03-21T01:23:26.511Z,69.11
2019-03-21T01:25:54.186Z,69.09
2019-03-21T01:28:20.188Z,69.12
2019-03-21T01:30:46.164Z,69.17
2019-03-21T01:33:12.020Z,69.17
2019-03-21T01:35:38.335Z,69.20
2019-03-21T01:38:04.301Z,69.23
2019-03-21T01:40:34.781Z,69.23
2019-03-21T01:43:00.632Z,69.20
2019-03-21T01:45:26.497Z,69.25
2019-03-21T01:47:52.993Z,69.27
2019-03-21T01:50:20.343Z,69.24
2019-03-21T01:52:46.308Z,69.21
2019-03-21T01:55:12.279Z,69.16
2019-03-21T01:57:38.131Z,69.18
2019-03-21T02:00:05.910Z,69.17
2019-03-21T02:02:31.776Z,69.14
2019-03-21T02:04:57.664Z,69.14
2019-03-21T02:07:23.635Z,69.08
2019-03-21T02:09:49.536Z,69.12
2019-03-21T02:12:15.388Z,69.05
2019-03-21T02:14:51.588Z,69.10
2019-03-21T02:17:09.064Z,69.05
2019-03-21T02:19:35.023Z,69.05
2019-03-21T02:22:00.899Z,69.07
2019-03-21T02:24:26.770Z,69.10
2019-03-21T02:26:52.619Z,69.13
2019-03-21T02:29:18.476Z,69.15
2019-03-21T02:31:44.382Z,69.09
2019-03-21T02:34:10.232Z,69.14
2019-03-21T02:36:36.077Z,69.17
2019-03-21T02:39:02.664Z,69.12
2019-03-21T02:41:28.519Z,69.02
2019-03-21T02:43:54.483Z,69.01
2019-03-21T02:46:20.438Z,69.14
2019-03-21T02:48:46.278Z,69.18
2019-03-21T02:51:12.309Z,69.21
2019-03-21T02:53:38.181Z,69.20
2019-03-21T02:56:05.938Z,69.15
2019-03-21T02:58:31.778Z,69.14
2019-03-21T03:00:57.642Z,69.08
2019-03-21T03:03:23.524Z,69.02
2019-03-21T03:05:49.489Z,69.06
2019-03-21T03:08:15.482Z,69.01
2019-03-21T03:10:54.197Z,69.05
2019-03-21T03:13:20.212Z,68.99
2019-03-21T03:15:46.048Z,69.11
2019-03-21T03:18:13.833Z,69.25
2019-03-21T03:20:39.783Z,69.28
2019-03-21T03:23:05.645Z,69.29
2019-03-21T03:25:31.496Z,69.50
2019-03-21T03:28:01.855Z,69.56
2019-03-21T03:30:27.723Z,69.59
2019-03-21T03:32:53.546Z,69.46
2019-03-21T03:35:19.521Z,69.56
2019-03-21T03:37:45.368Z,69.64
2019-03-21T03:40:12.779Z,69.46
2019-03-21T03:42:38.625Z,69.49
2019-03-21T03:45:12.556Z,69.55
2019-03-21T03:47:38.533Z,69.58
2019-03-21T03:50:06.298Z,69.76
2019-03-21T03:52:32.540Z,69.78
2019-03-21T03:54:58.401Z,69.80
2019-03-21T03:57:24.373Z,69.72
2019-03-21T03:59:50.347Z,69.79
2019-03-21T04:02:16.282Z,69.78
2019-03-21T04:04:42.181Z,69.73
2019-03-21T04:07:08.023Z,69.65
2019-03-21T04:09:33.894Z,69.60
2019-03-21T04:11:59.877Z,69.57
2019-03-21T04:14:27.707Z,69.58
2019-03-21T04:16:53.670Z,69.52
2019-03-21T04:19:19.677Z,69.56
2019-03-21T04:21:45.614Z,69.54
2019-03-21T04:24:11.462Z,69.51
2019-03-21T04:26:37.463Z,69.52
2019-03-21T04:29:03.438Z,69.58
2019-03-21T04:31:29.390Z,69.56
2019-03-21T04:33:56.871Z,69.62
2019-03-21T04:36:22.804Z,69.57
2019-03-21T04:38:48.791Z,69.51
2019-03-21T04:41:14.648Z,69.59
2019-03-21T04:43:40.508Z,69.58
2019-03-21T04:46:06.380Z,69.57
2019-03-21T04:48:32.403Z,69.54
2019-03-21T04:50:58.264Z,69.62
2019-03-21T04:53:24.216Z,69.66
2019-03-21T04:55:50.073Z,69.66
2019-03-21T04:58:15.921Z,69.72
2019-03-21T05:00:43.205Z,69.74
2019-03-21T05:03:12.994Z,69.81
2019-03-21T05:05:39.042Z,69.77
2019-03-21T05:08:05.015Z,69.80
2019-03-21T05:10:30.894Z,69.79
2019-03-21T05:12:56.755Z,69.73
2019-03-21T05:15:24.098Z,69.61
2019-03-21T05:17:51.397Z,69.51
2019-03-21T05:20:21.352Z,69.47
2019-03-21T05:22:47.211Z,69.65
2019-03-21T05:25:13.090Z,69.68
2019-03-21T05:27:38.935Z,69.64
2019-03-21T05:30:06.719Z,69.61
2019-03-21T05:32:32.601Z,69.64
2019-03-21T05:34:58.459Z,69.56
2019-03-21T05:37:24.287Z,69.51
2019-03-21T05:39:50.364Z,69.57
2019-03-21T05:42:16.332Z,69.49
2019-03-21T05:44:42.268Z,69.52
2019-03-21T05:47:08.168Z,69.60
2019-03-21T05:49:34.014Z,69.66
2019-03-21T05:51:59.882Z,69.70
2019-03-21T05:54:25.957Z,69.65
2019-03-21T05:56:51.839Z,69.75
2019-03-21T05:59:17.694Z,69.75
2019-03-21T06:01:43.592Z,69.71
2019-03-21T06:04:09.456Z,69.81
2019-03-21T06:06:39.989Z,69.93
2019-03-21T06:09:07.677Z,69.93
2019-03-21T06:11:33.635Z,69.92
2019-03-21T06:13:59.502Z,69.95
2019-03-21T06:16:25.384Z,69.92
2019-03-21T06:18:53.122Z,69.94
2019-03-21T06:21:20.893Z,69.87
2019-03-21T06:23:57.646Z,69.79
2019-03-21T06:26:25.424Z,69.72
2019-03-21T06:28:51.299Z,69.66
2019-03-21T06:31:17.200Z,69.49
2019-03-21T06:33:43.036Z,69.55
2019-03-21T06:36:08.894Z,69.61
2019-03-21T06:38:34.793Z,69.63
2019-03-21T06:41:00.665Z,69.59
2019-03-21T06:43:26.527Z,69.54
2019-03-21T06:45:52.443Z,69.53
2019-03-21T06:48:18.327Z,69.47
2019-03-21T06:50:44.311Z,69.44
2019-03-21T06:53:10.197Z,69.37
2019-03-21T06:55:36.630Z,69.35
2019-03-21T06:58:03.413Z,69.28
2019-03-21T07:00:29.399Z,69.30
2019-03-21T07:02:55.252Z,69.33
2019-03-21T07:05:21.189Z,69.34
2019-03-21T07:07:47.175Z,69.29
2019-03-21T07:10:13.132Z,69.32
2019-03-21T07:12:39.100Z,69.24
2019-03-21T07:15:05.995Z,69.07
2019-03-21T07:17:31.854Z,69.05
2019-03-21T07:19:57.708Z,69.00
2019-03-21T07:22:23.575Z,69.05
2019-03-21T07:24:49.419Z,69.03
2019-03-21T07:27:15.569Z,68.94
2019-03-21T07:29:41.439Z,68.93
2019-03-21T07:32:07.430Z,68.95
2019-03-21T07:34:33.287Z,68.90
2019-03-21T07:36:59.227Z,68.91
2019-03-21T07:39:25.116Z,68.95
2019-03-21T07:41:50.961Z,68.84
2019-03-21T07:44:16.818Z,68.79
2019-03-21T07:46:42.735Z,68.79
2019-03-21T07:49:08.617Z,68.66
2019-03-21T07:51:34.688Z,68.67
2019-03-21T07:54:00.640Z,68.70
2019-03-21T07:56:26.804Z,68.63
2019-03-21T07:58:52.687Z,68.66
2019-03-21T08:01:18.630Z,68.61
2019-03-21T08:03:44.506Z,68.63
2019-03-21T08:06:10.499Z,68.51
2019-03-21T08:08:36.353Z,68.47
2019-03-21T08:11:02.323Z,68.52
2019-03-21T08:13:28.288Z,68.34
2019-03-21T08:15:56.081Z,68.32
2019-03-21T08:18:21.808Z,68.31
2019-03-21T08:20:56.171Z,68.21
2019-03-21T08:23:18.901Z,68.26
2019-03-21T08:25:44.840Z,68.17
2019-03-21T08:28:10.719Z,68.12
2019-03-21T08:30:38.490Z,68.05
2019-03-21T08:33:04.350Z,68.02
2019-03-21T08:35:30.328Z,67.90
2019-03-21T08:37:56.267Z,67.77
2019-03-21T08:40:22.452Z,67.78
2019-03-21T08:42:48.348Z,67.73
2019-03-21T08:45:14.350Z,67.60
2019-03-21T08:47:40.431Z,67.62
2019-03-21T08:50:07.716Z,67.62
2019-03-21T08:52:33.576Z,67.59
2019-03-21T08:54:59.539Z,67.50
2019-03-21T08:57:25.626Z,67.48
2019-03-21T08:59:51.768Z,67.33
2019-03-21T09:02:17.637Z,67.11
2019-03-21T09:04:43.640Z,66.87
2019-03-21T09:07:09.589Z,66.64
2019-03-21T09:09:35.422Z,66.58
2019-03-21T09:12:01.293Z,66.71
2019-03-21T09:14:27.158Z,66.67
2019-03-21T09:16:53.126Z,66.52
2019-03-21T09:19:19.089Z,66.56
2019-03-21T09:21:44.954Z,66.63
2019-03-21T09:24:10.791Z,66.51
2019-03-21T09:26:38.305Z,66.56
2019-03-21T09:29:04.181Z,66.61
2019-03-21T09:31:30.130Z,66.65
2019-03-21T09:33:55.933Z,66.69
2019-03-21T09:36:21.798Z,66.63
2019-03-21T09:38:48.733Z,66.71
2019-03-21T09:41:14.586Z,66.71
2019-03-21T09:43:40.471Z,66.72
2019-03-21T09:46:06.467Z,66.83
2019-03-21T09:48:32.364Z,66.90
2019-03-21T09:50:58.220Z,66.85
2019-03-21T09:53:24.121Z,66.91
2019-03-21T09:55:49.976Z,66.90
2019-03-21T09:58:16.089Z,67.03
2019-03-21T10:00:42.108Z,66.94
2019-03-21T10:03:08.042Z,66.99
2019-03-21T10:05:33.908Z,67.08
2019-03-21T10:07:59.982Z,66.93
2019-03-21T10:10:27.152Z,67.11
2019-03-21T10:12:55.506Z,67.23
2019-03-21T10:15:21.034Z,67.30
2019-03-21T10:17:46.887Z,67.18
2019-03-21T10:20:12.760Z,67.02
2019-03-21T10:22:38.754Z,67.17
2019-03-21T10:25:04.817Z,67.24
2019-03-21T10:27:30.674Z,67.28
2019-03-21T10:29:56.561Z,67.27
2019-03-21T10:32:22.438Z,67.23
2019-03-21T10:34:48.325Z,67.42
2019-03-21T10:37:14.227Z,67.33
2019-03-21T10:39:41.958Z,67.14
2019-03-21T10:42:08.080Z,67.20
2019-03-21T10:44:33.993Z,67.27
2019-03-21T10:46:59.907Z,67.31
2019-03-21T10:49:25.915Z,67.09
2019-03-21T10:51:55.157Z,66.99
2019-03-21T10:54:19.450Z,67.13
2019-03-21T10:56:45.331Z,67.24
2019-03-21T10:59:11.351Z,67.12
2019-03-21T11:01:37.466Z,66.77
2019-03-21T11:04:03.393Z,66.85
2019-03-21T11:06:29.319Z,66.76
2019-03-21T11:08:55.176Z,66.64
2019-03-21T11:11:21.059Z,66.39
2019-03-21T11:13:47.035Z,66.27
2019-03-21T11:16:13.066Z,66.18
2019-03-21T11:18:39.103Z,66.09
2019-03-21T11:21:05.064Z,65.99
2019-03-21T11:23:30.924Z,65.73
2019-03-21T11:25:56.903Z,65.71
2019-03-21T11:28:22.884Z,65.45
2019-03-21T11:30:48.854Z,65.46
2019-03-21T11:33:14.915Z,65.53
2019-03-21T11:35:40.901Z,65.45
2019-03-21T11:38:06.849Z,65.15
2019-03-21T11:40:32.905Z,64.91
2019-03-21T11:42:58.963Z,64.92
2019-03-21T11:45:25.070Z,65.03
2019-03-21T11:47:51.336Z,64.94
2019-03-21T11:50:17.373Z,64.87
2019-03-21T11:52:43.343Z,64.73
2019-03-21T11:55:09.396Z,64.57
2019-03-21T11:57:35.232Z,64.50
2019-03-21T12:00:01.522Z,64.47
2019-03-21T12:02:27.667Z,64.40
2019-03-21T12:04:53.553Z,64.17
2019-03-21T12:07:19.525Z,64.05
2019-03-21T12:09:45.373Z,63.96
2019-03-21T12:12:12.660Z,63.93
2019-03-21T12:14:40.029Z,63.69
2019-03-21T12:17:05.895Z,63.54
2019-03-21T12:19:31.768Z,63.52
2019-03-21T12:21:57.691Z,63.44
2019-03-21T12:24:23.548Z,63.28
2019-03-21T12:26:49.429Z,63.37
2019-03-21T12:29:15.270Z,63.37
2019-03-21T12:31:41.123Z,63.33
2019-03-21T12:34:07.809Z,63.19
2019-03-21T12:36:33.663Z,62.91
2019-03-21T12:38:59.686Z,62.76
2019-03-21T12:41:25.668Z,62.83
2019-03-21T12:43:51.537Z,62.33
2019-03-21T12:46:17.380Z,62.28
2019-03-21T12:48:43.280Z,61.84
2019-03-21T12:51:09.144Z,61.77
2019-03-21T12:53:34.995Z,61.51
2019-03-21T12:56:00.993Z,60.76
2019-03-21T12:58:26.894Z,60.78
2019-03-21T13:00:53.118Z,60.90
2019-03-21T13:03:18.959Z,60.43
2019-03-21T13:05:44.834Z,60.21
2019-03-21T13:08:10.929Z,60.37
2019-03-21T13:10:36.964Z,60.06
2019-03-21T13:13:03.051Z,59.97
2019-03-21T13:15:30.243Z,58.95
2019-03-21T13:17:56.258Z,58.75
2019-03-21T13:20:22.123Z,59.48
2019-03-21T13:22:52.937Z,59.23
2019-03-21T13:25:15.649Z,59.00
2019-03-21T13:27:41.528Z,58.77
2019-03-21T13:30:08.711Z,58.30
2019-03-21T13:32:34.576Z,57.47
2019-03-21T13:35:00.465Z,57.32
2019-03-21T13:37:26.369Z,57.95
2019-03-21T13:39:52.204Z,58.28
2019-03-21T13:42:18.100Z,58.65
2019-03-21T13:44:44.054Z,58.89
2019-03-21T13:47:09.936Z,59.34
2019-03-21T13:49:35.907Z,59.75
2019-03-21T13:52:01.812Z,59.90
2019-03-21T13:54:27.965Z,60.21
2019-03-21T13:56:53.906Z,60.10
2019-03-21T13:59:19.749Z,60.01
2019-03-21T14:01:45.759Z,59.90
2019-03-21T14:04:11.716Z,59.77
2019-03-21T14:06:37.580Z,59.86
2019-03-21T14:09:04.769Z,59.55
2019-03-21T14:11:30.629Z,59.46
2019-03-21T14:13:56.503Z,59.28
2019-03-21T14:16:22.351Z,59.46
2019-03-21T14:18:48.238Z,59.32
2019-03-21T14:21:14.307Z,59.45
2019-03-21T14:23:43.556Z,59.49
2019-03-21T14:26:07.828Z,59.54
2019-03-21T14:28:33.678Z,59.59
2019-03-21T14:30:59.592Z,59.54
2019-03-21T14:33:25.464Z,59.53
2019-03-21T14:35:51.382Z,58.93
2019-03-21T14:38:25.834Z,59.02
2019-03-21T14:40:44.945Z,59.05
2019-03-21T14:43:10.816Z,59.17
2019-03-21T14:45:36.788Z,58.94
2019-03-21T14:48:02.740Z,58.11
2019-03-21T14:50:28.602Z,57.87
2019-03-21T14:52:54.600Z,57.25
2019-03-21T14:55:20.572Z,57.40
2019-03-21T14:57:46.431Z,56.98
2019-03-21T15:00:14.313Z,56.91
2019-03-21T15:02:40.389Z,56.80
2019-03-21T15:05:06.922Z,56.11
2019-03-21T15:07:32.795Z,55.31
2019-03-21T15:09:58.645Z,55.10
2019-03-21T15:12:24.641Z,55.46
2019-03-21T15:14:50.512Z,54.90
2019-03-21T15:17:16.391Z,54.68
2019-03-21T15:19:42.376Z,54.37
2019-03-21T15:22:09.478Z,53.70
2019-03-21T15:24:35.316Z,53.90
2019-03-21T15:27:01.192Z,53.92
2019-03-21T15:29:27.034Z,53.49
2019-03-21T15:31:52.901Z,53.16
2019-03-21T15:34:18.761Z,53.04
2019-03-21T15:36:44.687Z,53.24
2019-03-21T15:39:10.490Z,53.12
2019-03-21T15:41:36.658Z,53.25
2019-03-21T15:44:02.670Z,53.31
2019-03-21T15:46:28.548Z,52.53
2019-03-21T15:48:54.500Z,52.47
2019-03-21T15:51:20.416Z,52.14
2019-03-21T15:53:54.558Z,52.37
2019-03-21T15:56:13.959Z,51.95
2019-03-21T15:58:39.936Z,52.10
2019-03-21T16:01:05.753Z,52.50
2019-03-21T16:03:31.730Z,52.74
2019-03-21T16:05:57.738Z,52.82
2019-03-21T16:08:23.602Z,53.16
2019-03-21T16:10:49.459Z,52.67
2019-03-21T16:13:15.420Z,52.20
2019-03-21T16:15:41.377Z,51.88
2019-03-21T16:18:07.340Z,52.04
2019-03-21T16:20:33.338Z,52.28
2019-03-21T16:22:59.187Z,52.43
2019-03-21T16:25:25.146Z,52.40
2019-03-21T16:27:51.005Z,52.54
2019-03-21T16:30:16.841Z,52.71
2019-03-21T16:32:42.821Z,52.70
2019-03-21T16:35:08.997Z,52.17
2019-03-21T16:37:35.365Z,52.22
2019-03-21T16:40:04.472Z,52.25
2019-03-21T16:42:30.339Z,52.42
2019-03-21T16:44:56.311Z,52.42
2019-03-21T16:47:22.190Z,52.23
2019-03-21T16:49:48.166Z,52.39
2019-03-21T16:52:14.947Z,52.17
2019-03-21T16:54:40.946Z,52.17
2019-03-21T16:57:06.812Z,51.89
2019-03-21T16:59:32.709Z,52.02
2019-03-21T17:01:58.566Z,52.09
2019-03-21T17:04:24.539Z,52.23
2019-03-21T17:06:52.998Z,52.08
2019-03-21T17:09:18.838Z,52.16
2019-03-21T17:11:44.938Z,52.19
2019-03-21T17:14:10.930Z,52.00
2019-03-21T17:16:36.903Z,52.19
2019-03-21T17:19:02.829Z,52.54
2019-03-21T17:21:28.687Z,52.51
2019-03-21T17:23:54.551Z,52.78
2019-03-21T17:26:20.414Z,52.72
2019-03-21T17:28:46.272Z,52.50
2019-03-21T17:31:12.114Z,52.45
2019-03-21T17:33:39.315Z,52.45
2019-03-21T17:36:05.292Z,52.51
2019-03-21T17:38:31.127Z,52.57
2019-03-21T17:40:57.009Z,52.59
2019-03-21T17:43:22.868Z,52.55
2019-03-21T17:45:48.840Z,52.77
2019-03-21T17:48:14.726Z,52.79
2019-03-21T17:50:40.579Z,52.53
2019-03-21T17:53:06.470Z,52.73
2019-03-21T17:55:32.342Z,52.72
2019-03-21T17:57:58.251Z,52.79
2019-03-21T18:00:35.395Z,52.79
2019-03-21T18:03:01.513Z,52.77
2019-03-21T18:05:27.641Z,52.98
2019-03-21T18:07:53.546Z,52.86
2019-03-21T18:10:27.432Z,52.87
2019-03-21T18:12:53.307Z,52.92
2019-03-21T18:15:19.201Z,53.00
2019-03-21T18:17:47.923Z,53.08
2019-03-21T18:20:13.882Z,52.82
2019-03-21T18:22:39.743Z,52.83
2019-03-21T18:25:05.693Z,52.86
2019-03-21T18:27:31.564Z,53.00
2019-03-21T18:29:57.428Z,52.92
2019-03-21T18:32:23.388Z,53.13
2019-03-21T18:34:49.249Z,52.90
2019-03-21T18:37:15.231Z,52.74
2019-03-21T18:39:41.101Z,52.84
2019-03-21T18:42:07.146Z,52.97
2019-03-21T18:44:33.056Z,52.97
2019-03-21T18:46:58.927Z,52.96
2019-03-21T18:49:24.785Z,52.82
2019-03-21T18:51:50.739Z,52.59
2019-03-21T18:54:16.597Z,52.65
2019-03-21T18:56:42.500Z,52.64
2019-03-21T18:59:08.445Z,52.71
2019-03-21T19:01:34.336Z,52.73
2019-03-21T19:04:00.206Z,52.71
2019-03-21T19:06:26.604Z,52.90
2019-03-21T19:08:52.453Z,52.85
2019-03-21T19:11:18.412Z,52.96
2019-03-21T19:13:44.416Z,52.98
2019-03-21T19:16:10.284Z,53.07
2019-03-21T19:18:36.144Z,53.04
2019-03-21T19:21:02.123Z,53.05
2019-03-21T19:23:27.992Z,52.97
2019-03-21T19:25:53.852Z,53.07
2019-03-21T19:28:19.840Z,53.08
2019-03-21T19:30:45.804Z,53.04
2019-03-21T19:33:11.664Z,53.11
2019-03-21T19:35:37.511Z,53.17
2019-03-21T19:38:03.381Z,52.96
2019-03-21T19:40:29.248Z,53.05
2019-03-21T19:42:55.250Z,53.19
2019-03-21T19:45:21.092Z,53.26
2019-03-21T19:47:46.944Z,53.35
2019-03-21T19:50:14.710Z,53.31
2019-03-21T19:52:40.678Z,53.37
2019-03-21T19:55:07.163Z,53.28
2019-03-21T19:57:33.228Z,53.36
2019-03-21T19:59:59.107Z,53.40
2019-03-21T20:02:26.122Z,53.55
2019-03-21T20:04:52.036Z,53.62
2019-03-21T20:07:17.992Z,53.68
2019-03-21T20:09:43.840Z,53.64
2019-03-21T20:12:09.882Z,53.63
2019-03-21T20:14:35.787Z,53.64
2019-03-21T20:17:01.731Z,53.74
2019-03-21T20:19:27.699Z,53.70
2019-03-21T20:21:53.638Z,53.74
2019-03-21T20:24:19.655Z,53.92
2019-03-21T20:26:45.511Z,54.05
2019-03-21T20:29:11.390Z,54.12
2019-03-21T20:31:37.264Z,54.17
2019-03-21T20:34:03.202Z,54.27
2019-03-21T20:36:29.083Z,54.27
2019-03-21T20:38:54.937Z,54.22
2019-03-21T20:41:20.786Z,54.25
2019-03-21T20:43:46.754Z,54.33
2019-03-21T20:46:12.651Z,54.22
2019-03-21T20:48:38.401Z,54.33
2019-03-21T20:51:04.411Z,54.36
2019-03-21T20:53:30.397Z,54.42
2019-03-21T20:55:56.370Z,54.34
2019-03-21T20:58:22.218Z,54.37
2019-03-21T21:00:48.105Z,54.47
2019-03-21T21:03:16.469Z,54.48
2019-03-21T21:05:42.463Z,54.59
2019-03-21T21:08:08.453Z,54.60
2019-03-21T21:10:34.294Z,54.56
2019-03-21T21:13:00.163Z,54.54
2019-03-21T21:15:26.059Z,54.60
2019-03-21T21:17:52.061Z,54.79
2019-03-21T21:20:18.049Z,54.82
2019-03-21T21:22:43.986Z,54.76
2019-03-21T21:25:09.940Z,54.80
2019-03-21T21:27:35.910Z,54.77
2019-03-21T21:30:02.620Z,54.92
2019-03-21T21:32:28.462Z,54.93
2019-03-21T21:34:54.798Z,54.97
2019-03-21T21:37:20.713Z,55.01
2019-03-21T21:39:46.695Z,55.10
2019-03-21T21:42:12.550Z,55.13
2019-03-21T21:44:38.438Z,55.11
2019-03-21T21:47:04.406Z,55.08
2019-03-21T21:49:30.282Z,55.02
2019-03-21T21:51:56.266Z,55.13
2019-03-21T21:54:22.130Z,55.29
2019-03-21T21:56:48.016Z,55.32
2019-03-21T21:59:13.889Z,55.33
2019-03-21T22:01:39.747Z,55.39
2019-03-21T22:04:05.621Z,55.35
2019-03-21T22:06:31.539Z,55.36
2019-03-21T22:08:57.652Z,55.37
2019-03-21T22:11:23.535Z,55.48
2019-03-21T22:13:49.474Z,55.59
2019-03-21T22:16:15.336Z,55.68
2019-03-21T22:18:41.299Z,55.72
2019-03-21T22:21:07.262Z,55.71
2019-03-21T22:23:33.230Z,55.72
2019-03-21T22:25:59.101Z,55.74
2019-03-21T22:28:24.976Z,55.76
2019-03-21T22:30:50.944Z,55.81
2019-03-21T22:33:16.803Z,55.91
2019-03-21T22:35:42.642Z,55.98
2019-03-21T22:38:08.489Z,56.00
2019-03-21T22:40:34.357Z,56.03
2019-03-21T22:43:00.493Z,56.12
2019-03-21T22:45:26.365Z,56.16
2019-03-21T22:47:52.228Z,56.19
2019-03-21T22:50:18.204Z,56.21
2019-03-21T22:52:44.403Z,56.25
2019-03-21T22:55:10.358Z,56.29
2019-03-21T22:57:36.594Z,56.33
2019-03-21T23:00:04.373Z,56.46
2019-03-21T23:02:30.439Z,56.52
2019-03-21T23:04:56.418Z,56.57
2019-03-21T23:07:22.297Z,56.57
2019-03-21T23:09:48.229Z,56.60
2019-03-21T23:12:14.101Z,56.63
2019-03-21T23:14:39.957Z,56.65
2019-03-21T23:17:05.850Z,56.67
2019-03-21T23:19:32.646Z,56.70
2019-03-21T23:21:58.489Z,56.71
2019-03-21T23:24:24.744Z,56.76
2019-03-21T23:26:53.231Z,56.83
2019-03-21T23:29:18.372Z,56.88
2019-03-21T23:31:44.222Z,56.89
2019-03-21T23:34:10.071Z,56.83
2019-03-21T23:36:35.919Z,56.95
2019-03-21T23:39:01.801Z,56.88
2019-03-21T23:41:27.630Z,56.85
2019-03-21T23:43:53.509Z,57.01
2019-03-21T23:46:19.654Z,56.89
2019-03-21T23:48:45.536Z,56.96
2019-03-21T23:51:11.404Z,57.04
2019-03-21T23:53:37.245Z,57.09
2019-03-21T23:56:03.186Z,57.05
2019-03-21T23:58:29.156Z,57.12
